Time,TemperatureF,DewpointF,PressureIn,WindDirection,WindDirectionDegrees,WindSpeedMPH,WindSpeedGustMPH,Humidity,HourlyPrecipIn,Conditions,Clouds,dailyrainin,SoftwareType,DateUTC
2013-08-18 13:45:00,78.6,58.4,30.09,SE,138,1.0,1.0,50,0.00,,,0.00,Wunderground v.1.15,2013-08-18 18:45:00,
2013-08-18 13:50:00,78.7,59.0,30.09,ENE,61,1.0,1.0,51,0.00,,,0.00,Wunderground v.1.15,2013-08-18 18:50:00,
2013-08-18 13:55:00,78.2,59.1,30.09,SSW,204,1.0,1.0,52,0.00,,,0.00,Wunderground v.1.15,2013-08-18 18:55:00,
2013-08-18 14:00:00,77.8,59.3,30.08,SSE,152,1.0,1.0,53,0.00,,,0.00,Wunderground v.1.15,2013-08-18 19:00:00,
2013-08-18 14:05:00,77.7,58.7,30.08,ESE,116,0.0,1.0,52,0.00,,,0.00,Wunderground v.1.15,2013-08-18 19:05:00,
2013-08-18 14:10:00,78.5,58.9,30.08,SW,222,0.0,2.0,51,0.00,,,0.00,Wunderground v.1.15,2013-08-18 19:10:00,
2013-08-18 14:15:00,78.1,59.0,30.08,East,98,1.0,2.0,52,0.00,,,0.00,Wunderground v.1.15,2013-08-18 19:15:00,
2013-08-18 14:20:00,77.6,59.6,30.08,SE,140,1.0,1.0,54,0.00,,,0.00,Wunderground v.1.15,2013-08-18 19:20:00,
2013-08-18 14:25:00,77.8,59.3,30.08,SSW,196,0.0,1.0,53,0.00,,,0.00,Wunderground v.1.15,2013-08-18 19:25:00,
2013-08-18 14:35:00,79.2,60.1,30.07,SSE,152,1.0,1.0,52,0.00,,,0.00,Wunderground v.1.15,2013-08-18 19:35:00,
2013-08-18 14:40:00,80.0,59.7,30.07,SSW,211,1.0,7.0,50,0.00,,,0.00,Wunderground v.1.15,2013-08-18 19:40:00,
2013-08-18 14:45:00,79.6,58.8,30.07,SSE,161,2.0,7.0,49,0.00,,,0.00,Wunderground v.1.15,2013-08-18 19:45:00,
2013-08-18 14:50:00,78.7,59.6,30.07,SSE,165,2.0,2.0,52,0.00,,,0.00,Wunderground v.1.15,2013-08-18 19:50:00,
2013-08-18 15:00:00,79.7,58.8,30.07,SSW,195,1.0,7.0,49,0.00,,,0.00,Wunderground v.1.15,2013-08-18 20:00:00,
2013-08-18 15:05:00,79.4,60.2,30.06,East,88,3.0,7.0,52,0.00,,,0.00,Wunderground v.1.15,2013-08-18 20:05:00,
2013-08-18 15:10:00,79.2,60.1,30.06,ENE,71,3.0,3.0,52,0.00,,,0.00,Wunderground v.1.15,2013-08-18 20:10:00,
2013-08-18 15:15:00,79.1,58.9,30.06,SE,126,2.0,3.0,50,0.00,,,0.00,Wunderground v.1.15,2013-08-18 20:15:00,
2013-08-18 15:20:00,78.7,60.1,30.06,ESE,108,1.0,1.0,53,0.00,,,0.00,Wunderground v.1.15,2013-08-18 20:20:00,
2013-08-18 15:25:00,79.5,59.8,30.06,SSW,210,1.0,1.0,51,0.00,,,0.00,Wunderground v.1.15,2013-08-18 20:25:00,
2013-08-18 15:30:00,80.1,60.9,30.06,SSW,209,1.0,1.0,52,0.00,,,0.00,Wunderground v.1.15,2013-08-18 20:30:00,
2013-08-18 15:40:00,79.3,59.0,30.05,SE,125,1.0,2.0,50,0.00,,,0.00,Wunderground v.1.15,2013-08-18 20:40:00,
2013-08-18 15:45:00,79.2,60.1,30.05,South,188,2.0,2.0,52,0.00,,,0.00,Wunderground v.1.15,2013-08-18 20:45:00,
2013-08-18 15:50:00,79.1,59.4,30.05,South,181,1.0,1.0,51,0.00,,,0.00,Wunderground v.1.15,2013-08-18 20:50:00,
2013-08-18 15:55:00,79.7,59.4,30.05,SE,134,0.0,5.0,50,0.00,,,0.00,Wunderground v.1.15,2013-08-18 20:55:00,
2013-08-18 16:00:00,79.5,59.8,30.05,SE,129,1.0,5.0,51,0.00,,,0.00,Wunderground v.1.15,2013-08-18 21:00:00,
2013-08-18 16:10:00,79.9,60.7,30.05,SW,235,1.0,6.0,52,0.00,,,0.00,Wunderground v.1.15,2013-08-18 21:10:00,
2013-08-18 16:15:00,80.1,59.8,30.05,SE,136,2.0,6.0,50,0.00,,,0.00,Wunderground v.1.15,2013-08-18 21:15:00,
2013-08-18 16:20:00,80.1,59.2,30.05,SW,215,2.0,5.0,49,0.00,,,0.00,Wunderground v.1.15,2013-08-18 21:20:00,
2013-08-18 16:25:00,79.9,59.0,30.05,South,172,2.0,5.0,49,0.00,,,0.00,Wunderground v.1.15,2013-08-18 21:25:00,
2013-08-18 16:30:00,79.8,59.5,30.05,SE,129,1.0,1.0,50,0.00,,,0.00,Wunderground v.1.15,2013-08-18 21:30:00,
2013-08-18 16:40:00,79.9,59.6,30.05,SW,214,1.0,10.0,50,0.00,,,0.00,Wunderground v.1.15,2013-08-18 21:40:00,
2013-08-18 16:45:00,79.5,59.8,30.05,South,186,2.0,10.0,51,0.00,,,0.00,Wunderground v.1.15,2013-08-18 21:45:00,
2013-08-18 16:50:00,79.7,60.5,30.05,SSE,165,1.0,1.0,52,0.00,,,0.00,Wunderground v.1.15,2013-08-18 21:50:00,
2013-08-18 16:55:00,79.6,60.4,30.05,SE,142,0.0,1.0,52,0.00,,,0.00,Wunderground v.1.15,2013-08-18 21:55:00,
2013-08-18 17:00:00,79.5,59.8,30.05,East,80,0.0,0.0,51,0.00,,,0.00,Wunderground v.1.15,2013-08-18 22:00:00,
2013-08-18 17:05:00,79.2,60.6,30.06,SE,137,0.0,0.0,53,0.00,,,0.00,Wunderground v.1.15,2013-08-18 22:05:00,
2013-08-18 17:10:00,79.2,59.5,30.06,SE,145,0.0,0.0,51,0.00,,,0.00,Wunderground v.1.15,2013-08-18 22:10:00,
2013-08-18 17:20:00,78.7,59.6,30.06,ESE,111,1.0,1.0,52,0.00,,,0.00,Wunderground v.1.15,2013-08-18 22:20:00,
2013-08-18 17:30:00,79.7,60.0,30.06,ESE,123,0.0,0.0,51,0.00,,,0.00,Wunderground v.1.15,2013-08-18 22:30:00,
2013-08-18 17:35:00,79.8,60.1,30.05,ESE,109,0.0,0.0,51,0.00,,,0.00,Wunderground v.1.15,2013-08-18 22:35:00,
2013-08-18 17:40:00,80.0,60.2,30.05,SE,144,0.0,0.0,51,0.00,,,0.00,Wunderground v.1.15,2013-08-18 22:40:00,
2013-08-18 17:50:00,79.4,60.2,30.05,SE,130,0.0,4.0,52,0.00,,,0.00,Wunderground v.1.15,2013-08-18 22:50:00,
2013-08-18 17:55:00,79.1,60.0,30.05,ESE,106,1.0,4.0,52,0.00,,,0.00,Wunderground v.1.15,2013-08-18 22:55:00,
2013-08-18 18:00:00,79.0,59.9,30.05,ESE,102,1.0,1.0,52,0.00,,,0.00,Wunderground v.1.15,2013-08-18 23:00:00,
2013-08-18 18:05:00,78.8,60.2,30.05,East,80,0.0,1.0,53,0.00,,,0.00,Wunderground v.1.15,2013-08-18 23:05:00,
2013-08-18 18:15:00,78.0,59.5,30.04,East,94,1.0,2.0,53,0.00,,,0.00,Wunderground v.1.15,2013-08-18 23:15:00,
2013-08-18 18:20:00,77.9,59.9,30.04,SSE,148,1.0,1.0,54,0.00,,,0.00,Wunderground v.1.15,2013-08-18 23:20:00,
2013-08-18 18:25:00,77.8,60.3,30.04,SE,134,0.0,1.0,55,0.00,,,0.00,Wunderground v.1.15,2013-08-18 23:25:00,
2013-08-18 18:35:00,77.5,60.1,30.04,ESE,102,0.0,0.0,55,0.00,,,0.00,Wunderground v.1.15,2013-08-18 23:35:00,
2013-08-18 18:40:00,77.5,59.5,30.04,ESE,107,0.0,0.0,54,0.00,,,0.00,Wunderground v.1.15,2013-08-18 23:40:00,
2013-08-18 18:45:00,77.3,59.9,30.04,SE,126,0.0,0.0,55,0.00,,,0.00,Wunderground v.1.15,2013-08-18 23:45:00,
2013-08-18 18:50:00,77.2,60.3,30.04,East,95,0.0,0.0,56,0.00,,,0.00,Wunderground v.1.15,2013-08-18 23:50:00,
2013-08-18 19:00:00,76.9,60.5,30.03,East,93,0.0,0.0,57,0.00,,,0.00,Wunderground v.1.15,2013-08-19 00:00:00,
2013-08-18 19:05:00,76.7,60.3,30.03,East,101,0.0,0.0,57,0.00,,,0.00,Wunderground v.1.15,2013-08-19 00:05:00,
2013-08-18 19:10:00,76.6,60.2,30.03,East,87,0.0,0.0,57,0.00,,,0.00,Wunderground v.1.15,2013-08-19 00:10:00,
2013-08-18 19:15:00,76.4,60.5,30.03,East,83,0.0,0.0,58,0.00,,,0.00,Wunderground v.1.15,2013-08-19 00:15:00,
2013-08-18 19:20:00,76.2,60.8,30.03,East,88,0.0,0.0,59,0.00,,,0.00,Wunderground v.1.15,2013-08-19 00:20:00,
2013-08-18 19:25:00,75.9,61.0,30.03,ESE,110,0.0,0.0,60,0.00,,,0.00,Wunderground v.1.15,2013-08-19 00:25:00,
2013-08-18 19:30:00,75.6,61.2,30.03,ESE,105,0.0,0.0,61,0.00,,,0.00,Wunderground v.1.15,2013-08-19 00:30:00,
2013-08-18 19:40:00,75.0,61.1,30.03,ESE,108,0.0,0.0,62,0.00,,,0.00,Wunderground v.1.15,2013-08-19 00:40:00,
2013-08-18 19:45:00,74.6,61.2,30.03,ESE,103,0.0,0.0,63,0.00,,,0.00,Wunderground v.1.15,2013-08-19 00:45:00,
2013-08-18 19:55:00,74.0,61.5,30.03,East,101,0.0,0.0,65,0.00,,,0.00,Wunderground v.1.15,2013-08-19 00:55:00,
2013-08-18 20:00:00,73.7,61.6,30.03,East,98,0.0,0.0,66,0.00,,,0.00,Wunderground v.1.15,2013-08-19 01:00:00,
2013-08-18 20:05:00,73.4,61.3,30.03,ESE,105,0.0,0.0,66,0.00,,,0.00,Wunderground v.1.15,2013-08-19 01:05:00,
2013-08-18 20:10:00,73.1,61.5,30.03,ESE,103,0.0,0.0,67,0.00,,,0.00,Wunderground v.1.15,2013-08-19 01:10:00,
2013-08-18 20:15:00,72.9,61.3,30.03,ESE,104,0.0,0.0,67,0.00,,,0.00,Wunderground v.1.15,2013-08-19 01:15:00,
2013-08-18 20:20:00,72.6,61.8,30.03,ESE,103,0.0,0.0,69,0.00,,,0.00,Wunderground v.1.15,2013-08-19 01:20:00,
2013-08-18 20:25:00,72.2,61.5,30.03,ESE,105,0.0,0.0,69,0.00,,,0.00,Wunderground v.1.15,2013-08-19 01:25:00,
2013-08-18 20:30:00,72.0,61.3,30.03,East,100,0.0,0.0,69,0.00,,,0.00,Wunderground v.1.15,2013-08-19 01:30:00,
2013-08-18 20:35:00,71.7,61.4,30.03,East,100,0.0,0.0,70,0.00,,,0.00,Wunderground v.1.15,2013-08-19 01:35:00,
2013-08-18 20:45:00,71.2,61.3,30.03,East,100,0.0,0.0,71,0.00,,,0.00,Wunderground v.1.15,2013-08-19 01:45:00,
2013-08-18 20:50:00,70.9,61.4,30.03,East,99,0.0,0.0,72,0.00,,,0.00,Wunderground v.1.15,2013-08-19 01:50:00,
2013-08-18 20:55:00,70.7,61.2,30.03,East,99,0.0,0.0,72,0.00,,,0.00,Wunderground v.1.15,2013-08-19 01:55:00,
2013-08-18 21:00:00,70.5,61.4,30.04,East,100,0.0,0.0,73,0.00,,,0.00,Wunderground v.1.15,2013-08-19 02:00:00,
2013-08-18 21:05:00,70.3,61.2,30.04,East,100,0.0,0.0,73,0.00,,,0.00,Wunderground v.1.15,2013-08-19 02:05:00,
2013-08-18 21:10:00,70.1,61.0,30.04,East,100,0.0,0.0,73,0.00,,,0.00,Wunderground v.1.15,2013-08-19 02:10:00,
2013-08-18 21:15:00,69.9,60.8,30.04,East,99,0.0,0.0,73,0.00,,,0.00,Wunderground v.1.15,2013-08-19 02:15:00,
2013-08-18 21:20:00,69.8,60.8,30.04,East,100,0.0,0.0,73,0.00,,,0.00,Wunderground v.1.15,2013-08-19 02:20:00,
2013-08-18 21:25:00,69.7,60.7,30.04,East,101,0.0,0.0,73,0.00,,,0.00,Wunderground v.1.15,2013-08-19 02:25:00,
2013-08-18 21:35:00,69.4,60.4,30.04,East,101,0.0,0.0,73,0.00,,,0.00,Wunderground v.1.15,2013-08-19 02:35:00,
2013-08-18 21:40:00,69.2,60.2,30.04,East,101,0.0,0.0,73,0.00,,,0.00,Wunderground v.1.15,2013-08-19 02:40:00,
2013-08-18 21:45:00,69.1,60.1,30.04,ESE,103,0.0,0.0,73,0.00,,,0.00,Wunderground v.1.15,2013-08-19 02:45:00,
2013-08-18 21:50:00,69.0,60.0,30.04,ESE,110,0.0,0.0,73,0.00,,,0.00,Wunderground v.1.15,2013-08-19 02:50:00,
2013-08-18 21:55:00,68.9,59.9,30.04,ESE,110,0.0,0.0,73,0.00,,,0.00,Wunderground v.1.15,2013-08-19 02:55:00,
2013-08-18 22:00:00,68.7,59.7,30.04,ESE,110,0.0,0.0,73,0.00,,,0.00,Wunderground v.1.15,2013-08-19 03:00:00,
2013-08-18 22:10:00,68.4,59.8,30.05,ESE,103,0.0,0.0,74,0.00,,,0.00,Wunderground v.1.15,2013-08-19 03:10:00,
2013-08-18 22:20:00,68.2,59.6,30.04,East,98,0.0,0.0,74,0.00,,,0.00,Wunderground v.1.15,2013-08-19 03:20:00,
2013-08-18 22:25:00,68.0,59.4,30.04,East,91,0.0,0.0,74,0.00,,,0.00,Wunderground v.1.15,2013-08-19 03:25:00,
2013-08-18 22:30:00,67.9,59.7,30.04,East,94,0.0,0.0,75,0.00,,,0.00,Wunderground v.1.15,2013-08-19 03:30:00,
2013-08-18 22:35:00,67.7,59.5,30.04,East,95,0.0,0.0,75,0.00,,,0.00,Wunderground v.1.15,2013-08-19 03:35:00,
2013-08-18 22:40:00,67.5,59.3,30.04,East,94,0.0,0.0,75,0.00,,,0.00,Wunderground v.1.15,2013-08-19 03:40:00,
2013-08-18 22:45:00,67.3,59.5,30.04,East,95,0.0,0.0,76,0.00,,,0.00,Wunderground v.1.15,2013-08-19 03:45:00,
2013-08-18 22:50:00,67.2,59.4,30.04,East,97,0.0,0.0,76,0.00,,,0.00,Wunderground v.1.15,2013-08-19 03:50:00,
2013-08-18 22:55:00,67.1,59.3,30.04,East,100,0.0,0.0,76,0.00,,,0.00,Wunderground v.1.15,2013-08-19 03:55:00,
2013-08-18 23:00:00,67.1,59.3,30.04,ESE,104,0.0,0.0,76,0.00,,,0.00,Wunderground v.1.15,2013-08-19 04:00:00,
2013-08-18 23:05:00,67.1,59.3,30.04,ESE,102,0.0,0.0,76,0.00,,,0.00,Wunderground v.1.15,2013-08-19 04:05:00,
2013-08-18 23:10:00,67.0,59.2,30.04,East,101,0.0,0.0,76,0.00,,,0.00,Wunderground v.1.15,2013-08-19 04:10:00,
2013-08-18 23:15:00,66.8,59.0,30.04,East,101,0.0,0.0,76,0.00,,,0.00,Wunderground v.1.15,2013-08-19 04:15:00,
2013-08-18 23:20:00,66.6,58.8,30.05,East,101,0.0,0.0,76,0.00,,,0.00,Wunderground v.1.15,2013-08-19 04:20:00,
2013-08-18 23:25:00,66.4,59.0,30.05,East,101,0.0,0.0,77,0.00,,,0.00,Wunderground v.1.15,2013-08-19 04:25:00,
2013-08-18 23:30:00,66.2,58.8,30.05,East,101,0.0,0.0,77,0.00,,,0.00,Wunderground v.1.15,2013-08-19 04:30:00,
2013-08-18 23:35:00,66.0,58.6,30.05,East,101,0.0,0.0,77,0.00,,,0.00,Wunderground v.1.15,2013-08-19 04:35:00,
2013-08-18 23:40:00,65.8,58.7,30.05,East,101,0.0,0.0,78,0.00,,,0.00,Wunderground v.1.15,2013-08-19 04:40:00,
2013-08-18 23:45:00,65.6,58.6,30.05,East,101,0.0,0.0,78,0.00,,,0.00,Wunderground v.1.15,2013-08-19 04:45:00,
2013-08-18 23:50:00,65.4,58.4,30.05,East,101,0.0,0.0,78,0.00,,,0.00,Wunderground v.1.15,2013-08-19 04:50:00,
2013-08-18 23:55:00,65.2,58.2,30.05,East,101,0.0,0.0,78,0.00,,,0.00,Wunderground v.1.15,2013-08-19 04:55:00,